createdAt,value
2017-10-24T00:00:09.973Z,0
2017-10-24T00:01:12.339Z,0
2017-10-24T00:02:13.988Z,0
2017-10-24T00:03:15.812Z,0
2017-10-24T00:04:20.674Z,0
2017-10-24T00:05:22.465Z,0
2017-10-24T00:06:24.269Z,0
2017-10-24T00:07:26.038Z,0
2017-10-24T00:08:27.857Z,0
2017-10-24T00:09:29.628Z,0
2017-10-24T00:10:31.367Z,0
2017-10-24T00:11:33.132Z,0
2017-10-24T00:12:37.259Z,0
2017-10-24T00:13:38.868Z,0
2017-10-24T00:14:40.473Z,0
2017-10-24T00:15:42.085Z,0
2017-10-24T00:16:45.507Z,0
2017-10-24T00:17:48.892Z,0
2017-10-24T00:18:52.565Z,0
2017-10-24T00:19:56.222Z,0
2017-10-24T00:20:59.793Z,0
2017-10-24T00:22:03.877Z,0
2017-10-24T00:23:07.114Z,0
2017-10-24T00:24:10.746Z,0
2017-10-24T00:25:14.246Z,0
2017-10-24T00:26:17.980Z,0
2017-10-24T00:27:21.835Z,0
2017-10-24T00:28:26.183Z,0
2017-10-24T00:29:29.833Z,0
2017-10-24T00:30:34.124Z,0
2017-10-24T00:31:38.171Z,0
2017-10-24T00:32:39.763Z,0
2017-10-24T00:33:41.373Z,0
2017-10-24T00:34:42.978Z,0
2017-10-24T00:35:44.583Z,0
2017-10-24T00:36:46.199Z,0
2017-10-24T00:37:47.809Z,0
2017-10-24T00:38:49.432Z,0
2017-10-24T00:39:51.035Z,0
2017-10-24T00:40:52.642Z,0
2017-10-24T00:41:54.265Z,0
2017-10-24T00:42:55.855Z,0
2017-10-24T00:43:57.461Z,0
2017-10-24T00:44:59.074Z,0
2017-10-24T00:46:00.682Z,0
2017-10-24T00:47:02.295Z,0
2017-10-24T00:48:03.894Z,0
2017-10-24T00:49:05.505Z,0
2017-10-24T00:50:07.116Z,0
2017-10-24T00:51:08.717Z,0
2017-10-24T00:52:10.328Z,0
2017-10-24T00:53:11.941Z,0
2017-10-24T00:54:13.562Z,0
2017-10-24T00:55:15.172Z,0
2017-10-24T00:56:16.775Z,0
2017-10-24T00:57:18.382Z,0
2017-10-24T00:58:19.996Z,0
2017-10-24T00:59:21.606Z,0
2017-10-24T01:00:23.212Z,0
2017-10-24T01:01:24.828Z,0
2017-10-24T01:02:26.435Z,0
2017-10-24T01:03:28.037Z,0
2017-10-24T01:04:29.642Z,0
2017-10-24T01:05:31.256Z,0
2017-10-24T01:06:32.872Z,0
2017-10-24T01:07:34.482Z,0
2017-10-24T01:08:36.085Z,0
2017-10-24T01:09:37.696Z,0
2017-10-24T01:10:39.306Z,0
2017-10-24T01:11:40.911Z,0
2017-10-24T01:12:42.515Z,0
2017-10-24T01:13:44.123Z,0
2017-10-24T01:14:45.729Z,0
2017-10-24T01:15:47.340Z,0
2017-10-24T01:16:48.944Z,0
2017-10-24T01:17:50.558Z,0
2017-10-24T01:18:52.160Z,0
2017-10-24T01:19:53.771Z,0
2017-10-24T01:20:55.379Z,0
2017-10-24T01:21:56.988Z,0
2017-10-24T01:22:58.594Z,0
2017-10-24T01:24:00.201Z,0
2017-10-24T01:25:01.809Z,0
2017-10-24T01:26:03.415Z,0
2017-10-24T01:27:05.024Z,0
2017-10-24T01:28:06.635Z,0
2017-10-24T01:29:08.250Z,0
2017-10-24T01:30:09.857Z,0
2017-10-24T01:31:11.465Z,0
2017-10-24T01:32:13.070Z,0
2017-10-24T01:33:14.679Z,0
2017-10-24T01:34:16.285Z,0
2017-10-24T01:35:17.893Z,0
2017-10-24T01:36:19.506Z,0
2017-10-24T01:37:21.120Z,0
2017-10-24T01:38:22.720Z,0
2017-10-24T01:39:24.327Z,0
2017-10-24T01:40:25.940Z,0
2017-10-24T01:41:27.543Z,0
2017-10-24T01:42:29.156Z,0
2017-10-24T01:43:30.761Z,0
2017-10-24T01:44:32.379Z,0
2017-10-24T01:45:33.979Z,0
2017-10-24T01:46:35.591Z,0
2017-10-24T01:47:37.196Z,0
2017-10-24T01:48:38.807Z,0
2017-10-24T01:49:40.410Z,0
2017-10-24T01:50:42.022Z,0
2017-10-24T01:51:43.627Z,0
2017-10-24T01:52:45.239Z,0
2017-10-24T01:53:46.841Z,0
2017-10-24T01:54:48.454Z,0
2017-10-24T01:55:50.060Z,0
2017-10-24T01:56:51.673Z,0
2017-10-24T01:57:53.284Z,0
2017-10-24T01:58:54.889Z,0
2017-10-24T01:59:56.495Z,0
2017-10-24T02:00:58.105Z,0
2017-10-24T02:01:59.712Z,0
2017-10-24T02:03:01.318Z,0
2017-10-24T02:04:02.925Z,0
2017-10-24T02:05:04.540Z,0
2017-10-24T02:06:06.151Z,0
2017-10-24T02:07:07.756Z,0
2017-10-24T02:08:09.361Z,0
2017-10-24T02:09:10.972Z,0
2017-10-24T02:10:12.581Z,0
2017-10-24T02:11:14.187Z,0
2017-10-24T02:12:15.794Z,0
2017-10-24T02:13:17.408Z,0
2017-10-24T02:14:19.011Z,0
2017-10-24T02:15:20.621Z,0
2017-10-24T02:16:22.260Z,0
2017-10-24T02:17:23.869Z,0
2017-10-24T02:18:25.473Z,0
2017-10-24T02:19:27.086Z,0
2017-10-24T02:20:28.702Z,0
2017-10-24T02:21:30.300Z,0
2017-10-24T02:22:31.906Z,0
2017-10-24T02:23:33.521Z,0
2017-10-24T02:24:35.130Z,0
2017-10-24T02:25:36.736Z,0
2017-10-24T02:26:38.344Z,0
2017-10-24T02:27:39.960Z,0
2017-10-24T02:28:41.570Z,0
2017-10-24T02:29:43.175Z,0
2017-10-24T02:30:44.785Z,0
2017-10-24T02:31:46.392Z,0
2017-10-24T02:32:48.006Z,0
2017-10-24T02:33:49.613Z,0
2017-10-24T02:34:51.229Z,0
2017-10-24T02:35:52.829Z,0
2017-10-24T02:36:54.444Z,0
2017-10-24T02:37:56.044Z,0
2017-10-24T02:38:57.655Z,0
2017-10-24T02:39:59.262Z,0
2017-10-24T02:41:00.871Z,0
2017-10-24T02:42:02.484Z,0
2017-10-24T02:43:04.093Z,0
2017-10-24T02:44:05.695Z,0
2017-10-24T02:45:07.306Z,0
2017-10-24T02:46:08.914Z,0
2017-10-24T02:47:10.522Z,0
2017-10-24T02:48:12.137Z,0
2017-10-24T02:49:13.743Z,0
2017-10-24T02:50:15.370Z,0
2017-10-24T02:51:16.959Z,0
2017-10-24T02:52:18.573Z,0
2017-10-24T02:53:20.173Z,0
2017-10-24T02:54:21.786Z,0
2017-10-24T02:55:23.396Z,0
2017-10-24T02:56:25.010Z,0
2017-10-24T02:57:26.615Z,0
2017-10-24T02:58:28.218Z,0
2017-10-24T02:59:29.830Z,0
2017-10-24T03:00:31.434Z,0
2017-10-24T03:01:33.048Z,0
2017-10-24T03:02:34.654Z,0
2017-10-24T03:03:36.269Z,0
2017-10-24T03:04:37.876Z,0
2017-10-24T03:05:39.482Z,0
2017-10-24T03:06:41.096Z,0
2017-10-24T03:07:42.704Z,0
2017-10-24T03:08:44.312Z,0
2017-10-24T03:09:45.917Z,0
2017-10-24T03:10:47.528Z,0
2017-10-24T03:11:49.131Z,0
2017-10-24T03:12:50.741Z,0
2017-10-24T03:13:52.347Z,0
2017-10-24T03:14:53.962Z,0
2017-10-24T03:15:55.569Z,0
2017-10-24T03:16:57.182Z,0
2017-10-24T03:17:58.790Z,0
2017-10-24T03:19:00.398Z,0
2017-10-24T03:20:02.001Z,0
2017-10-24T03:21:03.614Z,0
2017-10-24T03:22:05.226Z,0
2017-10-24T03:23:06.838Z,0
2017-10-24T03:24:08.439Z,0
2017-10-24T03:25:10.051Z,0
2017-10-24T03:26:11.661Z,0
2017-10-24T03:27:13.266Z,0
2017-10-24T03:28:14.875Z,0
2017-10-24T03:29:16.480Z,0
2017-10-24T03:30:18.088Z,0
2017-10-24T03:31:19.701Z,0
2017-10-24T03:32:21.313Z,0
2017-10-24T03:33:22.924Z,0
2017-10-24T03:34:24.523Z,0
2017-10-24T03:35:26.139Z,0
2017-10-24T03:36:27.741Z,0
2017-10-24T03:37:29.369Z,0
2017-10-24T03:38:30.962Z,0
2017-10-24T03:39:32.578Z,0
2017-10-24T03:40:34.179Z,0
2017-10-24T03:41:35.795Z,0
2017-10-24T03:42:37.395Z,0
2017-10-24T03:43:39.010Z,0
2017-10-24T03:44:40.619Z,0
2017-10-24T03:45:42.232Z,0
2017-10-24T03:46:43.834Z,0
2017-10-24T03:47:45.444Z,0
2017-10-24T03:48:47.045Z,0
2017-10-24T03:49:48.658Z,0
2017-10-24T03:50:50.267Z,0
2017-10-24T03:51:51.877Z,0
2017-10-24T03:52:53.489Z,0
2017-10-24T03:53:55.095Z,0
2017-10-24T03:54:56.708Z,0
2017-10-24T03:55:58.315Z,0
2017-10-24T03:56:59.928Z,0
2017-10-24T03:58:01.534Z,0
2017-10-24T03:59:03.148Z,0
2017-10-24T04:00:04.753Z,0
2017-10-24T04:01:06.362Z,0
2017-10-24T04:02:07.967Z,0
2017-10-24T04:03:09.581Z,0
2017-10-24T04:04:11.185Z,0
2017-10-24T04:05:12.797Z,0
2017-10-24T04:06:14.403Z,0
2017-10-24T04:07:16.008Z,0
2017-10-24T04:08:17.616Z,0
2017-10-24T04:09:19.226Z,0
2017-10-24T04:10:20.829Z,0
2017-10-24T04:11:22.435Z,0
2017-10-24T04:12:24.048Z,0
2017-10-24T04:13:25.660Z,0
2017-10-24T04:14:27.270Z,0
2017-10-24T04:15:28.877Z,0
2017-10-24T04:16:30.482Z,0
2017-10-24T04:17:32.088Z,0
2017-10-24T04:18:33.701Z,0
2017-10-24T04:19:35.309Z,0
2017-10-24T04:20:36.920Z,0
2017-10-24T04:21:38.536Z,0
2017-10-24T04:22:40.144Z,0
2017-10-24T04:23:41.754Z,0
2017-10-24T04:24:43.361Z,0
2017-10-24T04:25:44.967Z,0
2017-10-24T04:26:46.578Z,0
2017-10-24T04:27:48.186Z,0
2017-10-24T04:28:49.791Z,0
2017-10-24T04:29:51.407Z,0
2017-10-24T04:30:53.010Z,0
2017-10-24T04:31:54.620Z,0
2017-10-24T04:32:56.222Z,0
2017-10-24T04:33:57.835Z,0
2017-10-24T04:34:59.440Z,0
2017-10-24T04:36:01.047Z,0
2017-10-24T04:37:02.656Z,0
2017-10-24T04:38:04.267Z,0
2017-10-24T04:39:05.877Z,0
2017-10-24T04:40:07.482Z,0
2017-10-24T04:41:09.093Z,0
2017-10-24T04:42:10.697Z,0
2017-10-24T04:43:12.310Z,0
2017-10-24T04:44:13.915Z,0
2017-10-24T04:45:15.528Z,0
2017-10-24T04:46:17.130Z,0
2017-10-24T04:47:18.741Z,0
2017-10-24T04:48:20.350Z,0
2017-10-24T04:49:21.959Z,0
2017-10-24T04:50:23.566Z,0
2017-10-24T04:51:25.178Z,0
2017-10-24T04:52:26.782Z,0
2017-10-24T04:53:28.393Z,0
2017-10-24T04:54:29.996Z,0
2017-10-24T04:55:31.602Z,0
2017-10-24T04:56:33.218Z,0
2017-10-24T04:57:34.825Z,0
2017-10-24T04:58:36.439Z,0
2017-10-24T04:59:38.041Z,0
2017-10-24T05:00:39.654Z,0
2017-10-24T05:01:41.258Z,0
2017-10-24T05:02:42.871Z,0
2017-10-24T05:03:44.482Z,0
2017-10-24T05:04:46.092Z,0
2017-10-24T05:05:47.701Z,0
2017-10-24T05:06:49.315Z,0
2017-10-24T05:07:50.919Z,0
2017-10-24T05:08:52.533Z,0
2017-10-24T05:09:54.140Z,0
2017-10-24T05:10:55.756Z,0
2017-10-24T05:11:57.365Z,0
2017-10-24T05:12:58.976Z,0
2017-10-24T05:14:00.580Z,0
2017-10-24T05:15:02.190Z,0
2017-10-24T05:16:03.793Z,0
2017-10-24T05:17:05.538Z,0
2017-10-24T05:18:07.098Z,0
2017-10-24T05:19:08.709Z,0
2017-10-24T05:20:10.315Z,0
2017-10-24T05:21:11.919Z,0
2017-10-24T05:22:13.527Z,0
2017-10-24T05:23:15.133Z,0
2017-10-24T05:24:16.746Z,0
2017-10-24T05:25:18.352Z,0
2017-10-24T05:26:19.960Z,0
2017-10-24T05:27:21.574Z,0
2017-10-24T05:28:23.176Z,0
2017-10-24T05:29:24.779Z,0
2017-10-24T05:30:26.392Z,0
2017-10-24T05:31:27.997Z,0
2017-10-24T05:32:29.863Z,0
2017-10-24T05:33:31.725Z,0
2017-10-24T05:34:33.526Z,0
2017-10-24T05:35:35.136Z,0
2017-10-24T05:36:37.018Z,0
2017-10-24T05:37:38.636Z,0
2017-10-24T05:38:40.260Z,0
2017-10-24T05:39:42.006Z,0
2017-10-24T05:40:44.297Z,0
2017-10-24T05:41:45.911Z,0
2017-10-24T05:42:47.522Z,0
2017-10-24T05:43:49.125Z,0
2017-10-24T05:44:50.730Z,0
2017-10-24T05:45:52.344Z,0
2017-10-24T05:46:53.950Z,0
2017-10-24T05:47:55.562Z,0
2017-10-24T05:48:57.169Z,0
2017-10-24T05:49:58.777Z,0
2017-10-24T05:51:00.386Z,0
2017-10-24T05:52:02.011Z,0
2017-10-24T05:53:03.606Z,0
2017-10-24T05:54:05.215Z,0
2017-10-24T05:55:06.826Z,0
2017-10-24T05:56:08.437Z,0
2017-10-24T05:57:10.051Z,0
2017-10-24T05:58:11.654Z,0
2017-10-24T05:59:13.268Z,0
2017-10-24T06:00:14.881Z,0
2017-10-24T06:01:16.488Z,5
2017-10-24T06:02:18.096Z,5
2017-10-24T06:03:19.711Z,5
2017-10-24T06:04:21.319Z,5
2017-10-24T06:05:22.933Z,5
2017-10-24T06:06:24.542Z,0
2017-10-24T06:07:26.197Z,5
2017-10-24T06:08:27.807Z,5
2017-10-24T06:09:29.420Z,0
2017-10-24T06:10:31.031Z,5
2017-10-24T06:11:32.634Z,5
2017-10-24T06:12:34.248Z,5
2017-10-24T06:13:35.846Z,5
2017-10-24T06:14:37.461Z,5
2017-10-24T06:15:39.074Z,5
2017-10-24T06:16:40.688Z,5
2017-10-24T06:17:42.294Z,5
2017-10-24T06:18:43.903Z,5
2017-10-24T06:19:45.517Z,5
2017-10-24T06:20:47.141Z,5
2017-10-24T06:21:48.749Z,5
2017-10-24T06:22:50.363Z,5
2017-10-24T06:23:51.974Z,5
2017-10-24T06:24:53.590Z,11
2017-10-24T06:25:55.196Z,11
2017-10-24T06:26:56.878Z,11
2017-10-24T06:27:58.484Z,11
2017-10-24T06:29:00.098Z,11
2017-10-24T06:30:01.708Z,16
2017-10-24T06:31:03.315Z,11
2017-10-24T06:32:04.934Z,16
2017-10-24T06:33:06.545Z,11
2017-10-24T06:34:08.164Z,11
2017-10-24T06:35:09.773Z,16
2017-10-24T06:36:11.388Z,16
2017-10-24T06:37:12.995Z,16
2017-10-24T06:38:14.613Z,16
2017-10-24T06:39:16.220Z,16
2017-10-24T06:40:17.887Z,16
2017-10-24T06:41:19.495Z,16
2017-10-24T06:42:21.112Z,16
2017-10-24T06:43:22.720Z,16
2017-10-24T06:44:24.337Z,16
2017-10-24T06:45:25.951Z,16
2017-10-24T06:46:27.560Z,16
2017-10-24T06:47:29.176Z,16
2017-10-24T06:48:30.785Z,16
2017-10-24T06:49:32.406Z,16
2017-10-24T06:50:34.014Z,22
2017-10-24T06:51:35.629Z,22
2017-10-24T06:52:37.236Z,22
2017-10-24T06:53:38.854Z,22
2017-10-24T06:54:40.460Z,28
2017-10-24T06:55:42.072Z,28
2017-10-24T06:56:43.685Z,28
2017-10-24T06:57:45.304Z,28
2017-10-24T06:58:46.906Z,33
2017-10-24T06:59:48.520Z,33
2017-10-24T07:00:50.144Z,39
2017-10-24T07:01:51.748Z,45
2017-10-24T07:02:53.353Z,45
2017-10-24T07:03:54.963Z,50
2017-10-24T07:04:56.580Z,50
2017-10-24T07:05:58.194Z,56
2017-10-24T07:06:59.801Z,56
2017-10-24T07:08:01.415Z,56
2017-10-24T07:09:03.033Z,67
2017-10-24T07:10:04.640Z,73
2017-10-24T07:11:06.256Z,78
2017-10-24T07:12:07.871Z,78
2017-10-24T07:13:09.483Z,73
2017-10-24T07:14:11.095Z,73
2017-10-24T07:15:12.713Z,73
2017-10-24T07:16:14.325Z,78
2017-10-24T07:17:15.933Z,84
2017-10-24T07:18:17.544Z,90
2017-10-24T07:19:19.160Z,90
2017-10-24T07:20:20.777Z,101
2017-10-24T07:21:22.389Z,106
2017-10-24T07:22:24.002Z,101
2017-10-24T07:23:25.618Z,95
2017-10-24T07:24:27.231Z,84
2017-10-24T07:25:28.840Z,78
2017-10-24T07:26:30.457Z,78
2017-10-24T07:27:32.066Z,73
2017-10-24T07:28:33.683Z,73
2017-10-24T07:29:35.293Z,73
2017-10-24T07:30:36.909Z,73
2017-10-24T07:31:38.517Z,90
2017-10-24T07:32:40.131Z,95
2017-10-24T07:33:41.744Z,95
2017-10-24T07:34:43.364Z,112
2017-10-24T07:35:44.973Z,95
2017-10-24T07:36:46.594Z,90
2017-10-24T07:37:48.198Z,90
2017-10-24T07:38:49.812Z,90
2017-10-24T07:39:51.422Z,101
2017-10-24T07:40:53.040Z,129
2017-10-24T07:41:54.650Z,146
2017-10-24T07:42:56.263Z,146
2017-10-24T07:43:57.887Z,151
2017-10-24T07:44:59.492Z,157
2017-10-24T07:46:01.110Z,174
2017-10-24T07:47:02.719Z,196
2017-10-24T07:48:04.336Z,213
2017-10-24T07:49:05.950Z,230
2017-10-24T07:50:07.567Z,202
2017-10-24T07:51:09.178Z,196
2017-10-24T07:52:10.794Z,185
2017-10-24T07:53:12.405Z,185
2017-10-24T07:54:14.024Z,202
2017-10-24T07:55:15.633Z,247
2017-10-24T07:56:17.254Z,315
2017-10-24T07:57:18.865Z,348
2017-10-24T07:58:20.483Z,365
2017-10-24T07:59:22.100Z,343
2017-10-24T08:00:23.711Z,320
2017-10-24T08:01:25.323Z,303
2017-10-24T08:02:26.941Z,286
2017-10-24T08:03:28.556Z,275
2017-10-24T08:04:30.169Z,275
2017-10-24T08:05:31.783Z,258
2017-10-24T08:06:33.403Z,230
2017-10-24T08:07:35.014Z,219
2017-10-24T08:08:36.631Z,219
2017-10-24T08:09:38.247Z,225
2017-10-24T08:10:39.861Z,230
2017-10-24T08:11:41.474Z,258
2017-10-24T08:12:43.087Z,303
2017-10-24T08:13:44.701Z,382
2017-10-24T08:14:46.311Z,376
2017-10-24T08:15:47.923Z,388
2017-10-24T08:16:49.541Z,365
2017-10-24T08:17:51.157Z,331
2017-10-24T08:18:52.773Z,348
2017-10-24T08:19:54.386Z,382
2017-10-24T08:20:56.003Z,433
2017-10-24T08:21:57.618Z,376
2017-10-24T08:22:59.228Z,399
2017-10-24T08:24:00.841Z,433
2017-10-24T08:25:02.464Z,399
2017-10-24T08:26:04.083Z,303
2017-10-24T08:27:05.700Z,236
2017-10-24T08:28:07.312Z,258
2017-10-24T08:29:08.931Z,292
2017-10-24T08:30:10.542Z,376
2017-10-24T08:31:12.154Z,466
2017-10-24T08:32:13.769Z,596
2017-10-24T08:33:15.393Z,675
2017-10-24T08:34:17.003Z,675
2017-10-24T08:35:18.621Z,511
2017-10-24T08:36:20.233Z,472
2017-10-24T08:37:21.850Z,427
2017-10-24T08:38:23.462Z,382
2017-10-24T08:39:25.081Z,433
2017-10-24T08:40:26.694Z,483
2017-10-24T08:41:28.316Z,399
2017-10-24T08:42:29.931Z,360
2017-10-24T08:43:31.544Z,376
2017-10-24T08:44:33.158Z,461
2017-10-24T08:45:34.775Z,523
2017-10-24T08:46:36.399Z,511
2017-10-24T08:47:38.009Z,478
2017-10-24T08:48:39.632Z,388
2017-10-24T08:49:41.239Z,371
2017-10-24T08:50:42.855Z,320
2017-10-24T08:51:44.471Z,275
2017-10-24T08:52:46.088Z,326
2017-10-24T08:53:47.702Z,348
2017-10-24T08:54:49.322Z,360
2017-10-24T08:55:50.936Z,298
2017-10-24T08:56:52.557Z,253
2017-10-24T08:57:54.163Z,292
2017-10-24T08:58:55.782Z,354
2017-10-24T08:59:57.397Z,511
2017-10-24T09:00:59.017Z,545
2017-10-24T09:02:00.638Z,450
2017-10-24T09:03:02.252Z,320
2017-10-24T09:04:03.865Z,270
2017-10-24T09:05:05.485Z,264
2017-10-24T09:06:07.095Z,348
2017-10-24T09:07:08.711Z,579
2017-10-24T09:08:10.330Z,590
2017-10-24T09:09:11.950Z,540
2017-10-24T09:10:13.565Z,613
2017-10-24T09:11:15.178Z,624
2017-10-24T09:12:16.800Z,703
2017-10-24T09:13:18.410Z,821
2017-10-24T09:14:20.025Z,646
2017-10-24T09:15:21.641Z,658
2017-10-24T09:16:23.264Z,860
2017-10-24T09:17:24.883Z,877
2017-10-24T09:18:26.499Z,1023
2017-10-24T09:19:28.120Z,1035
2017-10-24T09:20:29.738Z,877
2017-10-24T09:21:31.348Z,697
2017-10-24T09:22:32.974Z,759
2017-10-24T09:23:34.589Z,798
2017-10-24T09:24:36.205Z,562
2017-10-24T09:25:37.820Z,1288
2017-10-24T09:26:39.438Z,410
2017-10-24T09:27:41.056Z,725
2017-10-24T09:28:42.669Z,579
2017-10-24T09:29:44.290Z,534
2017-10-24T09:30:45.907Z,635
2017-10-24T09:31:47.529Z,759
2017-10-24T09:32:49.140Z,866
2017-10-24T09:33:50.758Z,753
2017-10-24T09:34:52.379Z,708
2017-10-24T09:35:53.989Z,573
2017-10-24T09:36:55.627Z,646
2017-10-24T09:37:57.221Z,630
2017-10-24T09:38:58.844Z,585
2017-10-24T09:40:00.462Z,646
2017-10-24T09:41:02.075Z,652
2017-10-24T09:42:03.686Z,680
2017-10-24T09:43:05.309Z,787
2017-10-24T09:44:06.924Z,781
2017-10-24T09:45:08.546Z,680
2017-10-24T09:46:10.164Z,613
2017-10-24T09:47:11.775Z,573
2017-10-24T09:48:13.396Z,613
2017-10-24T09:49:15.016Z,601
2017-10-24T09:50:16.634Z,675
2017-10-24T09:51:18.254Z,759
2017-10-24T09:52:19.877Z,630
2017-10-24T09:53:21.492Z,675
2017-10-24T09:54:23.112Z,618
2017-10-24T09:55:24.721Z,405
2017-10-24T09:56:26.340Z,416
2017-10-24T09:57:27.954Z,450
2017-10-24T09:58:29.577Z,405
2017-10-24T09:59:31.189Z,506
2017-10-24T10:00:32.810Z,658
2017-10-24T10:01:34.424Z,1181
2017-10-24T10:02:36.042Z,1890
2017-10-24T10:03:37.663Z,1642
2017-10-24T10:04:39.278Z,1518
2017-10-24T10:05:40.898Z,3313
2017-10-24T10:06:42.523Z,2728
2017-10-24T10:07:44.137Z,1591
2017-10-24T10:08:45.755Z,1361
2017-10-24T10:09:47.378Z,2120
2017-10-24T10:10:48.994Z,1220
2017-10-24T10:11:50.618Z,1035
2017-10-24T10:12:52.237Z,995
2017-10-24T10:13:53.865Z,720
2017-10-24T10:14:55.484Z,630
2017-10-24T10:15:57.108Z,618
2017-10-24T10:16:58.723Z,680
2017-10-24T10:18:00.342Z,663
2017-10-24T10:19:01.964Z,669
2017-10-24T10:20:03.595Z,658
2017-10-24T10:21:05.207Z,624
2017-10-24T10:22:06.831Z,675
2017-10-24T10:23:08.469Z,691
2017-10-24T10:24:10.071Z,928
2017-10-24T10:25:11.687Z,990
2017-10-24T10:26:13.311Z,810
2017-10-24T10:27:14.933Z,697
2017-10-24T10:28:16.550Z,630
2017-10-24T10:29:18.174Z,675
2017-10-24T10:30:19.787Z,641
2017-10-24T10:31:21.409Z,590
2017-10-24T10:32:23.022Z,523
2017-10-24T10:33:24.644Z,500
2017-10-24T10:34:26.262Z,534
2017-10-24T10:35:27.889Z,568
2017-10-24T10:36:29.505Z,613
2017-10-24T10:37:31.130Z,686
2017-10-24T10:38:32.739Z,697
2017-10-24T10:39:34.364Z,596
2017-10-24T10:40:35.978Z,624
2017-10-24T10:41:37.602Z,703
2017-10-24T10:42:39.221Z,613
2017-10-24T10:43:40.841Z,556
2017-10-24T10:44:42.470Z,551
2017-10-24T10:45:44.091Z,523
2017-10-24T10:46:45.698Z,511
2017-10-24T10:47:47.314Z,478
2017-10-24T10:48:48.940Z,416
2017-10-24T10:49:50.560Z,393
2017-10-24T10:50:52.177Z,444
2017-10-24T10:51:53.791Z,585
2017-10-24T10:52:55.412Z,635
2017-10-24T10:53:57.033Z,607
2017-10-24T10:54:58.652Z,618
2017-10-24T10:56:00.270Z,725
2017-10-24T10:57:01.898Z,495
2017-10-24T10:58:03.515Z,444
2017-10-24T10:59:05.127Z,545
2017-10-24T11:00:06.750Z,736
2017-10-24T11:01:08.367Z,1040
2017-10-24T11:02:09.984Z,1935
2017-10-24T11:03:11.612Z,2188
2017-10-24T11:04:13.236Z,1980
2017-10-24T11:05:14.856Z,1963
2017-10-24T11:06:16.472Z,1530
2017-10-24T11:07:18.095Z,866
2017-10-24T11:08:19.722Z,675
2017-10-24T11:09:21.332Z,635
2017-10-24T11:10:22.952Z,652
2017-10-24T11:11:24.576Z,540
2017-10-24T11:12:26.198Z,489
2017-10-24T11:13:27.815Z,472
2017-10-24T11:14:29.432Z,511
2017-10-24T11:15:31.055Z,506
2017-10-24T11:16:32.678Z,478
2017-10-24T11:17:34.298Z,641
2017-10-24T11:18:35.922Z,838
2017-10-24T11:19:37.541Z,765
2017-10-24T11:20:39.162Z,618
2017-10-24T11:21:40.777Z,534
2017-10-24T11:22:42.399Z,438
2017-10-24T11:23:44.014Z,450
2017-10-24T11:24:45.633Z,556
2017-10-24T11:25:47.256Z,545
2017-10-24T11:26:48.872Z,506
2017-10-24T11:27:50.496Z,483
2017-10-24T11:28:52.118Z,421
2017-10-24T11:29:53.740Z,326
2017-10-24T11:30:55.356Z,309
2017-10-24T11:31:56.978Z,343
2017-10-24T11:32:58.603Z,371
2017-10-24T11:34:00.219Z,421
2017-10-24T11:35:01.837Z,556
2017-10-24T11:36:03.462Z,579
2017-10-24T11:37:05.077Z,427
2017-10-24T11:38:06.691Z,382
2017-10-24T11:39:08.309Z,393
2017-10-24T11:40:09.945Z,315
2017-10-24T11:41:11.563Z,264
2017-10-24T11:42:13.182Z,281
2017-10-24T11:43:15.697Z,354
2017-10-24T11:44:17.311Z,292
2017-10-24T11:45:18.935Z,208
2017-10-24T11:46:20.550Z,191
2017-10-24T11:47:22.178Z,225
2017-10-24T11:48:23.790Z,225
2017-10-24T11:49:25.413Z,208
2017-10-24T11:50:27.025Z,180
2017-10-24T11:51:28.648Z,151
2017-10-24T11:52:30.264Z,163
2017-10-24T11:53:31.886Z,219
2017-10-24T11:54:33.499Z,253
2017-10-24T11:55:35.122Z,258
2017-10-24T11:56:36.738Z,213
2017-10-24T11:57:38.349Z,213
2017-10-24T11:58:39.969Z,191
2017-10-24T11:59:41.590Z,163
2017-10-24T12:00:43.206Z,196
2017-10-24T12:01:44.822Z,180
2017-10-24T12:02:46.443Z,185
2017-10-24T12:03:48.057Z,196
2017-10-24T12:04:49.672Z,191
2017-10-24T12:05:51.288Z,168
2017-10-24T12:06:52.907Z,168
2017-10-24T12:07:54.520Z,180
2017-10-24T12:08:56.144Z,196
2017-10-24T12:09:57.758Z,213
2017-10-24T12:10:59.379Z,191
2017-10-24T12:12:00.988Z,196
2017-10-24T12:13:02.609Z,202
2017-10-24T12:14:04.228Z,213
2017-10-24T12:15:05.840Z,247
2017-10-24T12:16:07.458Z,247
2017-10-24T12:17:09.078Z,247
2017-10-24T12:18:10.696Z,281
2017-10-24T12:19:12.305Z,298
2017-10-24T12:20:13.920Z,298
2017-10-24T12:21:15.540Z,303
2017-10-24T12:22:17.152Z,303
2017-10-24T12:23:18.774Z,303
2017-10-24T12:24:20.387Z,343
2017-10-24T12:25:22.006Z,376
2017-10-24T12:26:23.618Z,388
2017-10-24T12:27:25.235Z,371
2017-10-24T12:28:26.848Z,365
2017-10-24T12:29:28.468Z,371
2017-10-24T12:30:30.081Z,365
2017-10-24T12:31:31.696Z,331
2017-10-24T12:32:33.316Z,315
2017-10-24T12:33:34.928Z,292
2017-10-24T12:34:36.552Z,298
2017-10-24T12:35:38.161Z,331
2017-10-24T12:36:39.773Z,331
2017-10-24T12:37:41.391Z,343
2017-10-24T12:38:43.011Z,337
2017-10-24T12:39:44.622Z,298
2017-10-24T12:40:46.240Z,303
2017-10-24T12:41:47.853Z,393
2017-10-24T12:42:49.476Z,371
2017-10-24T12:43:51.084Z,343
2017-10-24T12:44:52.712Z,331
2017-10-24T12:45:54.321Z,343
2017-10-24T12:46:55.941Z,365
2017-10-24T12:47:57.552Z,365
2017-10-24T12:48:59.179Z,315
2017-10-24T12:50:00.788Z,264
2017-10-24T12:51:02.408Z,264
2017-10-24T12:52:04.031Z,292
2017-10-24T12:53:05.652Z,337
2017-10-24T12:54:07.269Z,331
2017-10-24T12:55:08.885Z,292
2017-10-24T12:56:10.499Z,315
2017-10-24T12:57:12.114Z,286
2017-10-24T12:58:13.734Z,208
2017-10-24T12:59:15.358Z,202
2017-10-24T13:00:16.967Z,275
2017-10-24T13:01:18.589Z,241
2017-10-24T13:02:20.206Z,281
2017-10-24T13:03:21.822Z,241
2017-10-24T13:04:23.432Z,196
2017-10-24T13:05:25.049Z,196
2017-10-24T13:06:26.668Z,180
2017-10-24T13:07:28.287Z,196
2017-10-24T13:08:29.904Z,174
2017-10-24T13:09:31.522Z,157
2017-10-24T13:10:33.135Z,185
2017-10-24T13:11:34.745Z,174
2017-10-24T13:12:36.365Z,180
2017-10-24T13:13:37.987Z,180
2017-10-24T13:14:39.606Z,213
2017-10-24T13:15:41.215Z,191
2017-10-24T13:16:42.830Z,213
2017-10-24T13:17:44.448Z,213
2017-10-24T13:18:46.058Z,196
2017-10-24T13:19:47.675Z,219
2017-10-24T13:20:49.296Z,180
2017-10-24T13:21:50.917Z,163
2017-10-24T13:22:52.533Z,157
2017-10-24T13:23:54.143Z,180
2017-10-24T13:24:55.757Z,191
2017-10-24T13:25:57.377Z,163
2017-10-24T13:26:58.990Z,180
2017-10-24T13:28:00.610Z,157
2017-10-24T13:29:02.224Z,174
2017-10-24T13:30:03.842Z,168
2017-10-24T13:31:05.455Z,163
2017-10-24T13:32:07.073Z,151
2017-10-24T13:33:08.687Z,146
2017-10-24T13:34:10.307Z,151
2017-10-24T13:35:11.921Z,140
2017-10-24T13:36:13.535Z,118
2017-10-24T13:37:15.154Z,112
2017-10-24T13:38:16.774Z,112
2017-10-24T13:39:18.383Z,106
2017-10-24T13:40:19.998Z,106
2017-10-24T13:41:21.615Z,95
2017-10-24T13:42:23.224Z,95
2017-10-24T13:43:24.838Z,101
2017-10-24T13:44:26.449Z,95
2017-10-24T13:45:28.070Z,106
2017-10-24T13:46:29.688Z,106
2017-10-24T13:47:31.300Z,95
2017-10-24T13:48:32.916Z,84
2017-10-24T13:49:34.534Z,84
2017-10-24T13:50:36.150Z,78
2017-10-24T13:51:37.761Z,90
2017-10-24T13:52:39.381Z,84
2017-10-24T13:53:40.991Z,73
2017-10-24T13:54:42.605Z,84
2017-10-24T13:55:44.220Z,95
2017-10-24T13:56:45.838Z,90
2017-10-24T13:57:47.457Z,90
2017-10-24T13:58:49.069Z,95
2017-10-24T13:59:50.686Z,101
2017-10-24T14:00:52.298Z,95
2017-10-24T14:01:53.918Z,95
2017-10-24T14:02:55.540Z,95
2017-10-24T14:03:57.148Z,90
2017-10-24T14:04:58.758Z,95
2017-10-24T14:06:00.377Z,106
2017-10-24T14:07:01.993Z,95
2017-10-24T14:08:03.602Z,90
2017-10-24T14:09:05.222Z,95
2017-10-24T14:10:06.834Z,118
2017-10-24T14:11:08.447Z,118
2017-10-24T14:12:10.065Z,112
2017-10-24T14:13:11.689Z,101
2017-10-24T14:14:13.300Z,90
2017-10-24T14:15:14.911Z,95
2017-10-24T14:16:16.529Z,84
2017-10-24T14:17:18.142Z,90
2017-10-24T14:18:19.760Z,90
2017-10-24T14:19:21.373Z,78
2017-10-24T14:20:22.989Z,78
2017-10-24T14:21:24.601Z,67
2017-10-24T14:22:26.221Z,67
2017-10-24T14:23:27.829Z,73
2017-10-24T14:24:29.447Z,90
2017-10-24T14:25:31.064Z,90
2017-10-24T14:26:32.677Z,78
2017-10-24T14:27:34.912Z,84
2017-10-24T14:28:36.530Z,67
2017-10-24T14:29:38.138Z,67
2017-10-24T14:30:39.750Z,61
2017-10-24T14:31:41.370Z,56
2017-10-24T14:32:42.980Z,56
2017-10-24T14:33:44.600Z,50
2017-10-24T14:34:46.207Z,50
2017-10-24T14:35:47.819Z,50
2017-10-24T14:36:49.436Z,45
2017-10-24T14:37:51.050Z,45
2017-10-24T14:38:52.661Z,50